Time;durP1;ratioP1;P1;durP2;ratioP2;P2;SDS_P1;SDS_P2;PMS_P1;PMS_P2;Temp;Humidity;BMP_temperature;BMP_pressure;BME280_temperature;BME280_humidity;BME280_pressure;Samples;Min_cycle;Max_cycle;Signal;HPM_P1;HPM_P2
2022/12/18 00:01:48;;;;;;;32.88;17.70;;;-4.80;99.90;;;;;;5045565;28;20029;-34
2022/12/18 00:04:24;;;;;;;34.47;15.60;;;-4.80;99.90;;;;;;5042621;28;20036;-31
2022/12/18 00:06:50;;;;;;;33.97;13.95;;;-4.80;99.90;;;;;;5036595;28;20049;-35
2022/12/18 00:09:16;;;;;;;34.05;14.15;;;-4.80;99.90;;;;;;5049260;28;20356;-32
2022/12/18 00:11:42;;;;;;;36.17;14.45;;;-4.80;99.90;;;;;;5040829;28;20028;-33
2022/12/18 00:14:10;;;;;;;30.30;14.43;;;-4.70;99.90;;;;;;5039717;28;20029;-34
2022/12/18 00:16:36;;;;;;;25.88;12.20;;;-4.70;99.90;;;;;;5049745;28;20037;-35
2022/12/18 00:19:03;;;;;;;35.78;14.43;;;-4.70;99.90;;;;;;5048672;28;20474;-33
2022/12/18 00:21:30;;;;;;;22.02;9.98;;;-4.70;99.90;;;;;;5047573;28;20096;-34
2022/12/18 00:23:56;;;;;;;33.45;14.57;;;-4.70;99.90;;;;;;5040295;28;20021;-33
2022/12/18 00:26:27;;;;;;;22.70;12.20;;;-4.60;99.90;;;;;;5042186;28;20052;-33
2022/12/18 00:28:55;;;;;;;32.40;14.20;;;-4.60;99.90;;;;;;5042247;28;20037;-32
2022/12/18 00:31:23;;;;;;;21.37;11.20;;;-4.50;99.90;;;;;;5045953;28;20028;-33
2022/12/18 00:33:48;;;;;;;20.75;8.52;;;-4.50;99.90;;;;;;5046072;28;20363;-34
2022/12/18 00:36:20;;;;;;;20.23;11.88;;;-4.40;99.90;;;;;;5047532;28;20120;-35
2022/12/18 00:38:46;;;;;;;16.77;9.07;;;-4.40;99.90;;;;;;5044750;28;20473;-35
2022/12/18 00:42:55;;;;;;;19.33;10.57;;;-4.30;99.90;;;;;;5040723;28;20482;-34
2022/12/18 00:44:01;;;;;;;17.80;11.60;;;-4.20;99.90;;;;;;5040919;28;20038;-34
2022/12/18 00:46:27;;;;;;;20.45;12.02;;;-4.20;99.90;;;;;;5043596;28;20560;-36
2022/12/18 00:48:52;;;;;;;20.05;10.10;;;-4.30;99.90;;;;;;5041612;28;20104;-34
2022/12/18 00:51:18;;;;;;;18.73;10.63;;;-4.30;99.90;;;;;;5036673;28;20124;-35
2022/12/18 00:53:43;;;;;;;15.10;11.52;;;-4.20;99.90;;;;;;5041832;28;20083;-34
2022/12/18 00:56:09;;;;;;;28.55;12.93;;;-4.20;99.90;;;;;;5044018;28;20564;-35
2022/12/18 00:58:37;;;;;;;23.25;13.57;;;-4.20;99.90;;;;;;5043974;28;20021;-35
2022/12/18 01:01:04;;;;;;;;;;;-4.30;99.90;;;;;;5042609;28;20043;-32
2022/12/18 01:03:30;;;;;;;30.92;15.35;;;-4.30;99.90;;;;;;5046119;28;19912;-36
2022/12/18 01:05:56;;;;;;;38.95;13.90;;;-4.40;99.90;;;;;;5043059;28;20123;-33
2022/12/18 01:08:21;;;;;;;25.05;10.95;;;-4.40;99.90;;;;;;5043009;28;20688;-32
2022/12/18 01:10:47;;;;;;;35.90;15.52;;;-4.40;99.90;;;;;;5045300;28;20490;-34
2022/12/18 01:13:12;;;;;;;22.17;12.38;;;-4.40;99.90;;;;;;5043033;28;20462;-35
2022/12/18 01:15:38;;;;;;;29.45;12.90;;;-4.40;99.90;;;;;;5039524;28;20448;-34
2022/12/18 01:18:07;;;;;;;19.13;8.75;;;-4.50;99.90;;;;;;5045390;28;20067;-31
2022/12/18 01:20:32;;;;;;;;;;;-4.40;99.90;;;;;;5042037;28;20030;-34
2022/12/18 01:22:58;;;;;;;20.25;12.43;;;-4.40;99.90;;;;;;5054607;28;19923;-34
2022/12/18 01:25:23;;;;;;;27.85;12.75;;;-4.40;99.90;;;;;;5037481;28;20086;-33
2022/12/18 01:27:49;;;;;;;23.23;12.70;;;-4.40;99.90;;;;;;5042156;28;20049;-35
2022/12/18 01:30:15;;;;;;;26.70;10.80;;;-4.40;99.90;;;;;;5039561;28;20680;-35
2022/12/18 01:32:40;;;;;;;28.08;11.25;;;-4.30;99.90;;;;;;5045169;28;20116;-34
2022/12/18 01:35:06;;;;;;;25.35;10.88;;;-4.40;99.90;;;;;;5038751;28;20044;-34
2022/12/18 01:37:32;;;;;;;24.45;13.27;;;-4.30;99.90;;;;;;5038212;28;20020;-34
2022/12/18 01:39:58;;;;;;;23.67;11.32;;;-4.30;99.90;;;;;;5039981;28;20108;-37
2022/12/18 01:42:25;;;;;;;32.35;15.15;;;-4.30;99.90;;;;;;5044351;28;20031;-35
2022/12/18 01:45:02;;;;;;;31.13;14.68;;;-4.40;99.90;;;;;;5040032;28;20534;-36
2022/12/18 01:47:51;;;;;;;27.00;11.90;;;-4.40;99.90;;;;;;5039723;28;20021;-37
2022/12/18 01:50:19;;;;;;;40.85;17.02;;;-4.40;99.90;;;;;;5040509;28;20555;-35
2022/12/18 01:52:51;;;;;;;23.63;11.75;;;-4.40;99.90;;;;;;5042894;28;20029;-35
2022/12/18 01:55:19;;;;;;;32.08;14.93;;;-4.50;99.90;;;;;;5038491;28;20102;-32
2022/12/18 01:57:46;;;;;;;36.13;15.63;;;-4.50;99.90;;;;;;5046774;28;20024;-36
2022/12/18 02:00:17;;;;;;;28.67;13.70;;;-4.50;99.90;;;;;;5039798;28;20024;-33
2022/12/18 02:02:44;;;;;;;39.33;15.35;;;-4.50;99.90;;;;;;5041349;28;20376;-35
2022/12/18 02:05:12;;;;;;;41.83;18.25;;;-4.50;99.90;;;;;;5037321;28;20454;-35
2022/12/18 02:07:48;;;;;;;29.85;12.82;;;-4.50;99.90;;;;;;5043470;28;20052;-35
2022/12/18 02:10:20;;;;;;;23.92;12.68;;;-4.60;99.90;;;;;;5038436;28;20040;-32
2022/12/18 02:13:12;;;;;;;34.58;15.93;;;-4.60;99.90;;;;;;5042127;28;20029;-37
2022/12/18 02:15:58;;;;;;;31.50;15.75;;;-4.60;99.90;;;;;;5046851;28;20035;-36
2022/12/18 02:18:31;;;;;;;31.67;14.35;;;-4.60;99.90;;;;;;5039415;28;20036;-33
2022/12/18 02:21:01;;;;;;;42.63;18.48;;;-4.60;99.90;;;;;;5038539;28;20025;-34
2022/12/18 02:23:38;;;;;;;28.92;13.23;;;-4.70;99.90;;;;;;5042125;28;20128;-35
2022/12/18 02:26:13;;;;;;;26.48;13.20;;;-4.60;99.90;;;;;;5039758;28;20513;-32
2022/12/18 02:29:07;;;;;;;33.28;14.65;;;-4.60;99.90;;;;;;5036458;28;20124;-33
2022/12/18 02:31:40;;;;;;;50.80;20.23;;;-4.60;99.90;;;;;;5029960;28;20398;-33
2022/12/18 02:34:08;;;;;;;54.58;20.00;;;-4.70;99.90;;;;;;5051073;28;20390;-34
2022/12/18 02:36:37;;;;;;;38.50;15.95;;;-4.70;99.90;;;;;;5042339;28;20083;-33
2022/12/18 02:39:06;;;;;;;25.42;11.02;;;-4.70;99.90;;;;;;5042843;28;20447;-34
2022/12/18 02:41:31;;;;;;;37.75;16.20;;;-4.70;99.90;;;;;;5041003;28;20032;-33
2022/12/18 02:44:01;;;;;;;22.48;11.00;;;-4.70;99.90;;;;;;5037685;28;20044;-37
2022/12/18 02:46:32;;;;;;;38.70;15.38;;;-4.70;99.90;;;;;;5039570;28;20171;-32
2022/12/18 02:49:23;;;;;;;28.45;12.50;;;-4.60;99.90;;;;;;5049000;28;20041;-32
2022/12/18 02:52:07;;;;;;;39.53;16.25;;;-4.70;99.90;;;;;;5038105;28;20048;-32
2022/12/18 02:54:55;;;;;;;28.67;12.13;;;-4.70;99.90;;;;;;5045844;28;20061;-35
2022/12/18 02:57:36;;;;;;;30.90;14.50;;;-4.80;99.90;;;;;;5037416;28;20029;-33
2022/12/18 03:00:11;;;;;;;44.70;16.05;;;-4.90;99.90;;;;;;5050348;28;20044;-32
2022/12/18 03:02:53;;;;;;;28.80;15.32;;;-4.90;99.90;;;;;;5040361;28;20034;-34
2022/12/18 03:05:21;;;;;;;22.42;10.45;;;-4.90;99.90;;;;;;5041354;28;20035;-32
2022/12/18 03:07:53;;;;;;;24.65;11.77;;;-4.80;99.90;;;;;;5040062;28;20616;-36
2022/12/18 03:10:25;;;;;;;17.42;10.60;;;-4.80;99.90;;;;;;5038806;28;20034;-32
2022/12/18 03:13:04;;;;;;;32.05;14.18;;;-4.90;99.90;;;;;;5038273;28;20021;-31
2022/12/18 03:15:46;;;;;;;27.25;12.02;;;-4.80;99.90;;;;;;5042684;28;20025;-31
2022/12/18 03:18:34;;;;;;;34.95;14.95;;;-4.90;99.90;;;;;;5043871;28;20509;-31
2022/12/18 03:21:05;;;;;;;27.98;13.15;;;-4.90;99.90;;;;;;5037721;28;20425;-31
2022/12/18 03:23:37;;;;;;;25.52;12.90;;;-4.90;99.90;;;;;;5036397;28;20038;-33
2022/12/18 03:26:07;;;;;;;16.88;10.27;;;-4.90;99.90;;;;;;5040215;28;20017;-35
2022/12/18 03:28:38;;;;;;;24.63;11.15;;;-4.90;99.90;;;;;;5038379;28;20533;-35
2022/12/18 03:31:05;;;;;;;32.28;13.73;;;-4.90;99.90;;;;;;5044551;28;20508;-34
2022/12/18 03:33:38;;;;;;;29.45;11.45;;;-4.90;99.90;;;;;;5040533;28;20028;-35
2022/12/18 03:36:03;;;;;;;16.85;9.25;;;-4.90;99.90;;;;;;5040063;28;20030;-34
2022/12/18 03:38:29;;;;;;;25.58;12.07;;;-4.80;99.90;;;;;;5040861;28;20036;-32
2022/12/18 03:41:11;;;;;;;33.22;14.57;;;-4.80;99.90;;;;;;5041697;28;20030;-36
2022/12/18 03:43:42;;;;;;;24.50;10.35;;;-4.80;99.90;;;;;;5043932;28;20048;-35
2022/12/18 03:46:25;;;;;;;19.25;10.38;;;-4.80;99.90;;;;;;5047865;28;20091;-34
2022/12/18 03:48:58;;;;;;;28.17;12.80;;;-4.70;99.90;;;;;;5041465;28;20041;-34
2022/12/18 03:52:07;;;;;;;17.42;8.02;;;-4.80;99.90;;;;;;5044446;28;20615;-33
2022/12/18 03:54:33;;;;;;;;;;;-4.80;99.90;;;;;;5008604;28;20037;-36
2022/12/18 03:57:06;;;;;;;24.17;9.27;;;-4.80;99.90;;;;;;5033631;28;20476;-32
2022/12/18 03:59:34;;;;;;;19.00;8.25;;;-4.80;99.90;;;;;;5037484;28;20033;-33
2022/12/18 04:02:02;;;;;;;14.23;8.75;;;-4.80;99.90;;;;;;5044417;28;20048;-37
2022/12/18 04:04:30;;;;;;;12.32;8.55;;;-4.80;99.90;;;;;;5046655;28;20033;-34
2022/12/18 04:06:56;;;;;;;18.13;7.72;;;-4.80;99.90;;;;;;5044586;28;20025;-37
2022/12/18 04:09:22;;;;;;;20.42;9.25;;;-4.70;99.90;;;;;;5047577;28;20106;-34
2022/12/18 04:11:48;;;;;;;18.95;8.43;;;-4.80;99.90;;;;;;5051611;28;20120;-32
2022/12/18 04:14:14;;;;;;;25.13;11.68;;;-4.70;99.90;;;;;;5043782;28;20059;-33
2022/12/18 04:16:39;;;;;;;16.55;8.55;;;-4.70;99.90;;;;;;5049998;28;20116;-36
2022/12/18 04:19:05;;;;;;;29.48;10.75;;;-4.80;99.90;;;;;;5046266;28;20469;-33
2022/12/18 04:21:31;;;;;;;21.70;10.85;;;-4.80;99.90;;;;;;5045922;28;20040;-34
2022/12/18 04:23:56;;;;;;;20.33;9.02;;;-4.80;99.90;;;;;;5043391;28;20025;-36
2022/12/18 04:26:22;;;;;;;23.13;10.73;;;-4.80;99.90;;;;;;5042979;28;20052;-35
2022/12/18 04:28:47;;;;;;;19.30;10.85;;;-4.80;99.90;;;;;;5038173;28;20124;-36
2022/12/18 04:31:13;;;;;;;17.75;7.07;;;-4.80;99.90;;;;;;5028404;28;20040;-36
2022/12/18 04:33:38;;;;;;;16.02;8.23;;;-4.80;99.90;;;;;;5029306;28;20033;-32
2022/12/18 04:36:04;;;;;;;19.08;8.23;;;-4.80;99.90;;;;;;5027669;28;20172;-34
2022/12/18 04:38:30;;;;;;;19.73;9.55;;;-4.80;99.90;;;;;;5035940;28;20037;-32
2022/12/18 04:40:56;;;;;;;18.25;9.07;;;-4.70;99.90;;;;;;5028202;28;20040;-32
2022/12/18 04:43:21;;;;;;;23.83;10.68;;;-4.70;99.90;;;;;;5028132;28;20149;-32
2022/12/18 04:45:47;;;;;;;30.48;11.73;;;-4.70;99.90;;;;;;5030252;28;20040;-31
2022/12/18 04:48:12;;;;;;;34.38;13.98;;;-4.80;99.90;;;;;;5028081;28;20770;-35
2022/12/18 04:50:38;;;;;;;23.85;10.25;;;-4.80;99.90;;;;;;5028467;28;20032;-36
2022/12/18 04:53:04;;;;;;;27.83;12.07;;;-4.90;99.90;;;;;;5044455;28;20070;-35
2022/12/18 04:55:29;;;;;;;23.77;9.35;;;-4.90;99.90;;;;;;5029972;28;20128;-31
2022/12/18 04:57:55;;;;;;;27.10;11.68;;;-4.90;99.90;;;;;;5029549;28;20025;-36
2022/12/18 05:00:21;;;;;;;35.08;12.65;;;-4.90;99.90;;;;;;5027127;28;20104;-35
2022/12/18 05:02:47;;;;;;;23.02;10.57;;;-4.80;99.90;;;;;;5028727;28;20053;-34
2022/12/18 05:05:12;;;;;;;11.88;7.80;;;-4.90;99.90;;;;;;5027081;28;20040;-37
2022/12/18 05:07:38;;;;;;;28.70;11.52;;;-4.80;99.90;;;;;;5026795;28;20033;-34
2022/12/18 05:10:07;;;;;;;11.20;8.02;;;-4.80;99.90;;;;;;5026632;28;20487;-36
2022/12/18 05:12:33;;;;;;;30.70;13.20;;;-4.90;99.90;;;;;;5027675;28;20044;-36
2022/12/18 05:14:58;;;;;;;23.08;9.73;;;-4.90;99.90;;;;;;5031281;28;20036;-34
2022/12/18 05:17:24;;;;;;;21.88;8.40;;;-4.90;99.90;;;;;;5025541;28;20025;-36
2022/12/18 05:19:50;;;;;;;24.45;11.48;;;-4.90;99.90;;;;;;5025979;28;20040;-36
2022/12/18 05:22:15;;;;;;;25.75;12.63;;;-4.90;99.90;;;;;;5026570;28;20466;-32
2022/12/18 05:24:41;;;;;;;31.30;12.95;;;-4.90;99.90;;;;;;5027660;28;20119;-35
2022/12/18 05:27:07;;;;;;;32.05;13.90;;;-4.90;99.90;;;;;;5028043;28;20135;-33
2022/12/18 05:29:32;;;;;;;25.20;11.18;;;-4.90;99.90;;;;;;5027705;28;20975;-36
2022/12/18 05:31:58;;;;;;;35.65;14.68;;;-4.90;99.90;;;;;;5027015;28;20037;-36
2022/12/18 05:34:23;;;;;;;41.83;15.88;;;-5.00;99.90;;;;;;5027083;28;20087;-32
2022/12/18 05:36:49;;;;;;;24.10;9.48;;;-5.00;99.90;;;;;;5037235;28;20048;-37
2022/12/18 05:39:15;;;;;;;32.40;11.43;;;-5.00;99.90;;;;;;5046165;28;20470;-35
2022/12/18 05:41:40;;;;;;;27.95;11.20;;;-5.00;99.90;;;;;;5045862;28;20453;-34
2022/12/18 05:44:06;;;;;;;30.20;10.95;;;-5.00;99.90;;;;;;5045373;28;20041;-31
2022/12/18 05:46:31;;;;;;;20.35;9.85;;;-5.00;99.90;;;;;;5046057;28;20099;-37
2022/12/18 05:49:00;;;;;;;22.98;10.90;;;-5.00;99.90;;;;;;5042215;28;20051;-34
2022/12/18 05:51:27;;;;;;;30.88;13.00;;;-4.90;99.90;;;;;;5043106;28;20071;-36
2022/12/18 05:53:52;;;;;;;22.77;9.73;;;-5.00;99.90;;;;;;5028681;28;20112;-39
2022/12/18 05:56:20;;;;;;;27.90;13.32;;;-5.00;99.90;;;;;;5033892;28;20496;-32
2022/12/18 05:58:46;;;;;;;25.30;12.85;;;-5.00;99.90;;;;;;5027586;28;20037;-37
2022/12/18 06:01:15;;;;;;;20.60;10.57;;;-4.90;99.90;;;;;;5033756;28;20119;-33
2022/12/18 06:03:41;;;;;;;27.48;11.40;;;-4.90;99.90;;;;;;5037672;28;20410;-31
2022/12/18 06:06:14;;;;;;;13.93;9.07;;;-4.90;99.90;;;;;;5042065;28;20039;-34
2022/12/18 06:08:40;;;;;;;19.65;9.68;;;-4.90;99.90;;;;;;5044011;28;20037;-33
2022/12/18 06:11:05;;;;;;;27.67;12.45;;;-4.90;99.90;;;;;;5042933;28;20447;-34
2022/12/18 06:13:31;;;;;;;32.88;12.55;;;-4.90;99.90;;;;;;5044837;28;20039;-31
2022/12/18 06:15:56;;;;;;;23.90;10.95;;;-4.90;99.90;;;;;;5043928;28;20094;-33
2022/12/18 06:18:22;;;;;;;41.72;14.10;;;-5.00;99.90;;;;;;5046927;28;20025;-31
2022/12/18 06:20:58;;;;;;;26.08;13.00;;;-5.00;99.90;;;;;;5042171;28;20043;-32
2022/12/18 06:23:24;;;;;;;15.32;8.60;;;-5.00;99.90;;;;;;5040862;28;20033;-33
2022/12/18 06:25:50;;;;;;;26.75;10.98;;;-5.00;99.90;;;;;;5044046;28;20546;-34
2022/12/18 06:28:16;;;;;;;23.10;11.32;;;-4.90;99.90;;;;;;5044126;28;20052;-38
2022/12/18 06:30:45;;;;;;;19.70;10.75;;;-4.90;99.90;;;;;;5042549;28;20024;-33
2022/12/18 06:33:11;;;;;;;26.30;11.77;;;-4.90;99.90;;;;;;5044261;28;20078;-32
2022/12/18 06:35:36;;;;;;;15.98;8.80;;;-4.80;99.90;;;;;;5041023;28;20037;-36
2022/12/18 06:38:02;;;;;;;33.85;13.43;;;-4.90;99.90;;;;;;5046262;28;20354;-35
2022/12/18 06:40:28;;;;;;;29.15;12.15;;;-4.90;99.90;;;;;;5042860;28;20075;-33
2022/12/18 06:42:54;;;;;;;22.98;10.23;;;-4.90;99.90;;;;;;5046560;28;20367;-35
2022/12/18 06:45:19;;;;;;;13.07;8.82;;;-4.90;99.90;;;;;;5041691;28;20036;-35
2022/12/18 06:47:45;;;;;;;20.65;11.13;;;-4.90;99.90;;;;;;5042174;28;20120;-36
2022/12/18 06:50:11;;;;;;;13.23;7.30;;;-4.90;99.90;;;;;;5042566;28;20033;-38
2022/12/18 06:52:38;;;;;;;27.00;12.25;;;-4.90;99.90;;;;;;5043779;28;20047;-36
2022/12/18 06:55:05;;;;;;;20.95;12.85;;;-4.80;99.90;;;;;;5041998;28;20084;-35
2022/12/18 06:57:30;;;;;;;26.20;11.40;;;-4.90;99.90;;;;;;5027976;28;20027;-33
2022/12/18 06:59:56;;;;;;;32.80;13.38;;;-4.80;99.90;;;;;;5044016;28;20479;-32
2022/12/18 07:02:21;;;;;;;25.85;11.90;;;-4.90;99.90;;;;;;5038250;28;20033;-31
2022/12/18 07:04:50;;;;;;;27.67;11.48;;;-4.90;99.90;;;;;;5045679;28;20033;-37
2022/12/18 07:07:15;;;;;;;21.60;9.70;;;-4.90;99.90;;;;;;5045199;28;20115;-32
2022/12/18 07:09:41;;;;;;;16.48;10.07;;;-4.90;99.90;;;;;;5041000;28;20124;-36
2022/12/18 07:12:07;;;;;;;19.67;8.63;;;-4.90;99.90;;;;;;5041819;28;20044;-33
2022/12/18 07:14:33;;;;;;;26.95;13.25;;;-4.80;99.90;;;;;;5042098;28;20045;-35
2022/12/18 07:16:59;;;;;;;25.23;11.80;;;-4.80;99.90;;;;;;5035818;28;20060;-35
2022/12/18 07:19:24;;;;;;;23.95;12.05;;;-4.90;99.90;;;;;;5048258;28;20040;-33
2022/12/18 07:21:50;;;;;;;23.90;11.38;;;-4.80;99.90;;;;;;5047738;28;20027;-34
2022/12/18 07:24:16;;;;;;;32.55;12.60;;;-4.80;99.90;;;;;;5046736;28;20021;-35
2022/12/18 07:26:41;;;;;;;20.20;11.43;;;-4.90;99.90;;;;;;5047452;28;20482;-36
2022/12/18 07:29:07;;;;;;;27.92;11.45;;;-4.90;99.90;;;;;;5044078;28;20039;-33
2022/12/18 07:31:33;;;;;;;17.73;9.77;;;-4.80;99.90;;;;;;5037877;28;20060;-35
2022/12/18 07:33:59;;;;;;;34.55;12.57;;;-4.80;99.90;;;;;;5027614;28;20051;-34
2022/12/18 07:36:25;;;;;;;23.67;12.30;;;-4.80;99.90;;;;;;5046479;28;20043;-32
2022/12/18 07:38:52;;;;;;;33.10;12.90;;;-4.80;99.90;;;;;;5044435;28;20493;-33
2022/12/18 07:41:18;;;;;;;25.33;11.75;;;-4.80;99.90;;;;;;5033479;28;20029;-31
2022/12/18 07:43:44;;;;;;;28.50;11.77;;;-4.90;99.90;;;;;;5027239;28;20025;-32
2022/12/18 07:46:13;;;;;;;40.03;14.40;;;-4.90;99.90;;;;;;5042516;28;20391;-33
2022/12/18 07:48:39;;;;;;;;;;;-4.90;99.90;;;;;;5040869;28;20037;-31
2022/12/18 07:51:06;;;;;;;22.67;11.45;;;-4.90;99.90;;;;;;5042626;28;19924;-34
2022/12/18 07:53:33;;;;;;;26.35;11.80;;;-4.90;99.90;;;;;;5045473;28;20033;-35
2022/12/18 07:56:01;;;;;;;24.20;11.93;;;-4.90;99.90;;;;;;5045042;28;20473;-34
2022/12/18 07:58:28;;;;;;;30.98;13.75;;;-4.90;99.90;;;;;;5038709;28;20112;-34
2022/12/18 08:00:53;;;;;;;18.65;10.18;;;-4.90;99.90;;;;;;5031303;28;20040;-35
2022/12/18 08:03:19;;;;;;;19.60;8.00;;;-4.90;99.90;;;;;;5046405;28;20358;-32
2022/12/18 08:05:45;;;;;;;27.35;10.73;;;-4.80;99.90;;;;;;5045232;28;20082;-34
2022/12/18 08:08:10;;;;;;;22.73;10.20;;;-4.90;99.90;;;;;;5044879;28;20511;-34
2022/12/18 08:10:37;;;;;;;23.13;11.40;;;-4.90;99.90;;;;;;5046314;28;20041;-33
2022/12/18 08:13:03;;;;;;;31.15;12.05;;;-4.90;99.90;;;;;;5044424;28;20745;-36
2022/12/18 08:15:28;;;;;;;36.97;14.82;;;-4.90;99.90;;;;;;5041061;28;20056;-32
2022/12/18 08:17:56;;;;;;;22.30;10.45;;;-4.90;99.90;;;;;;5041441;28;21587;-34
2022/12/18 08:20:22;;;;;;;11.35;7.30;;;-4.90;99.90;;;;;;5041159;28;21012;-34
2022/12/18 08:22:48;;;;;;;15.77;9.77;;;-4.90;99.90;;;;;;5041676;28;20031;-32
2022/12/18 08:25:13;;;;;;;21.33;10.70;;;-4.80;99.90;;;;;;5043418;28;20029;-35
2022/12/18 08:27:39;;;;;;;16.60;8.25;;;-4.80;99.90;;;;;;5043232;28;20041;-34
2022/12/18 08:30:05;;;;;;;23.92;11.85;;;-4.80;99.90;;;;;;5046300;28;20059;-34
2022/12/18 08:32:32;;;;;;;24.58;11.32;;;-4.70;99.90;;;;;;5039124;28;20029;-34
2022/12/18 08:34:58;;;;;;;28.35;12.15;;;-4.70;99.90;;;;;;5047209;28;20749;-31
2022/12/18 08:37:24;;;;;;;28.30;13.57;;;-4.70;99.90;;;;;;5042874;28;20075;-33
2022/12/18 08:39:49;;;;;;;15.52;8.68;;;-4.70;99.90;;;;;;5041855;28;20106;-33
2022/12/18 08:44:59;;;;;;;16.98;7.93;;;-4.70;99.90;;;;;;5043871;28;20082;-34
2022/12/18 08:47:25;;;;;;;15.13;9.52;;;-4.70;99.90;;;;;;5042674;28;20033;-34
2022/12/18 08:49:51;;;;;;;15.65;10.65;;;-4.70;99.90;;;;;;5050960;28;20663;-32
2022/12/18 08:52:17;;;;;;;26.42;11.40;;;-4.60;99.90;;;;;;5044736;28;20103;-32
2022/12/18 08:54:42;;;;;;;20.08;10.68;;;-4.60;99.90;;;;;;5042342;28;20025;-33
2022/12/18 08:57:08;;;;;;;21.50;11.15;;;-4.60;99.90;;;;;;5047765;28;20066;-34
2022/12/18 08:59:33;;;;;;;14.45;9.60;;;-4.60;99.90;;;;;;5040831;28;20111;-33
2022/12/18 09:01:59;;;;;;;23.25;10.60;;;-4.60;99.90;;;;;;5035457;28;20044;-31
2022/12/18 09:04:25;;;;;;;15.50;9.20;;;-4.50;99.90;;;;;;5042338;28;20032;-39
2022/12/18 09:06:50;;;;;;;17.55;9.38;;;-4.50;99.90;;;;;;5043468;28;20074;-38
2022/12/18 09:09:16;;;;;;;19.40;10.55;;;-4.50;99.90;;;;;;5044305;28;20405;-40
2022/12/18 09:11:41;;;;;;;32.40;12.98;;;-4.40;99.90;;;;;;5043876;28;20030;-36
2022/12/18 09:14:09;;;;;;;31.48;15.30;;;-4.40;99.90;;;;;;5041299;28;20037;-38
2022/12/18 09:16:34;;;;;;;26.30;8.93;;;-4.40;99.90;;;;;;5038925;28;20033;-39
2022/12/18 09:19:02;;;;;;;31.88;11.93;;;-4.40;99.90;;;;;;5039405;28;20191;-38
2022/12/18 09:21:30;;;;;;;20.55;11.75;;;-4.40;99.90;;;;;;5043968;28;20021;-40
2022/12/18 09:23:56;;;;;;;;;;;-4.50;99.90;;;;;;5041244;28;20028;-35
2022/12/18 09:26:23;;;;;;;18.70;10.07;;;-4.50;99.90;;;;;;5041981;28;19912;-40
2022/12/18 09:28:49;;;;;;;20.00;9.60;;;-4.60;99.90;;;;;;5041394;28;20044;-39
2022/12/18 09:31:17;;;;;;;17.00;9.70;;;-4.60;99.90;;;;;;5040457;28;20033;-39
2022/12/18 09:33:42;;;;;;;33.03;13.25;;;-4.60;99.90;;;;;;5039804;28;20029;-38
2022/12/18 09:36:11;;;;;;;20.38;11.13;;;-4.60;99.90;;;;;;5038656;28;20444;-37
2022/12/18 09:38:37;;;;;;;31.10;13.27;;;-4.60;99.90;;;;;;5043793;28;20115;-39
2022/12/18 09:41:18;;;;;;;23.20;12.68;;;-4.60;99.90;;;;;;5039379;28;20450;-40
2022/12/18 09:43:59;;;;;;;21.27;10.82;;;-4.60;99.90;;;;;;5056100;28;20120;-36
2022/12/18 09:46:35;;;;;;;22.90;10.20;;;-4.50;99.90;;;;;;5037736;28;20243;-39
2022/12/18 09:49:04;;;;;;;49.05;15.77;;;-4.50;99.90;;;;;;5038437;28;20078;-38
2022/12/18 09:51:39;;;;;;;34.85;12.40;;;-4.50;99.90;;;;;;5035911;28;20258;-37
2022/12/18 09:54:12;;;;;;;26.48;11.95;;;-4.50;99.90;;;;;;5036110;28;20107;-40
2022/12/18 09:56:42;;;;;;;10.90;6.22;;;-4.40;99.90;;;;;;5040415;28;20047;-39
2022/12/18 09:59:26;;;;;;;29.33;13.82;;;-4.40;99.90;;;;;;5042943;28;20075;-39
2022/12/18 10:01:52;;;;;;;20.23;9.63;;;-4.30;99.90;;;;;;5036580;28;20604;-39
2022/12/18 10:04:18;;;;;;;28.92;12.93;;;-4.40;99.90;;;;;;5042419;28;20110;-39
2022/12/18 10:06:54;;;;;;;22.85;12.43;;;-4.40;99.90;;;;;;5038766;28;20029;-39
2022/12/18 10:09:46;;;;;;;17.77;9.73;;;-4.30;99.90;;;;;;5043033;28;20035;-35
2022/12/18 10:12:23;;;;;;;24.70;12.07;;;-4.30;99.90;;;;;;5033668;28;20509;-38
2022/12/18 10:15:11;;;;;;;24.90;9.77;;;-4.30;99.90;;;;;;5040869;28;20032;-38
2022/12/18 10:17:58;;;;;;;26.67;12.50;;;-4.30;99.90;;;;;;5043916;28;20033;-38
2022/12/18 10:20:45;;;;;;;16.20;8.80;;;-4.30;99.90;;;;;;5038514;28;20341;-38
2022/12/18 10:23:31;;;;;;;28.88;11.95;;;-4.20;99.90;;;;;;5037148;28;20041;-39
2022/12/18 10:26:05;;;;;;;19.02;10.05;;;-4.10;99.90;;;;;;5037334;28;20124;-39
2022/12/18 10:28:35;;;;;;;24.73;9.70;;;-4.10;99.90;;;;;;5037356;28;20047;-38
2022/12/18 10:31:01;;;;;;;30.45;14.55;;;-4.20;99.90;;;;;;5029790;28;21224;-39
2022/12/18 10:33:32;;;;;;;22.02;9.70;;;-4.30;99.90;;;;;;5031281;28;20063;-36
2022/12/18 10:35:57;;;;;;;20.42;11.35;;;-4.30;99.90;;;;;;5029701;28;20033;-39
2022/12/18 10:38:25;;;;;;;18.38;7.85;;;-4.30;99.90;;;;;;5033012;28;20026;-39
2022/12/18 10:41:26;;;;;;;22.45;10.57;;;-4.30;99.90;;;;;;5028816;28;20117;-38
2022/12/18 10:44:20;;;;;;;34.50;14.55;;;-4.30;99.90;;;;;;5017566;28;20033;-40
2022/12/18 10:46:50;;;;;;;19.38;8.75;;;-4.40;99.90;;;;;;5008751;28;20037;-39
2022/12/18 10:49:28;;;;;;;28.90;12.75;;;-4.30;99.90;;;;;;5041241;28;20095;-37
2022/12/18 10:52:16;;;;;;;25.55;11.35;;;-4.30;99.90;;;;;;5027642;28;20110;-40
2022/12/18 10:54:55;;;;;;;30.00;14.02;;;-4.40;99.90;;;;;;5039574;28;20439;-39
2022/12/18 10:57:35;;;;;;;25.10;11.15;;;-4.40;99.90;;;;;;5041063;28;20448;-40
2022/12/18 11:00:27;;;;;;;16.63;9.60;;;-4.40;99.90;;;;;;5037438;28;20067;-39
2022/12/18 11:02:53;;;;;;;23.15;12.50;;;-4.30;99.90;;;;;;5040903;28;20083;-38
2022/12/18 11:05:27;;;;;;;27.67;10.93;;;-4.40;99.90;;;;;;5042878;28;20496;-40
2022/12/18 11:07:56;;;;;;;23.02;10.40;;;-4.40;99.90;;;;;;5042877;28;20580;-39
2022/12/18 11:10:33;;;;;;;26.77;12.95;;;-4.30;99.90;;;;;;5046767;28;20093;-38
2022/12/18 11:13:16;;;;;;;23.45;12.02;;;-4.40;99.90;;;;;;5047876;28;20037;-38
2022/12/18 11:15:42;;;;;;;17.95;11.43;;;-4.50;99.90;;;;;;5042193;28;20041;-35
2022/12/18 11:18:28;;;;;;;22.38;10.38;;;-4.50;99.90;;;;;;5047822;28;20024;-38
2022/12/18 11:21:06;;;;;;;28.85;13.13;;;-4.30;99.90;;;;;;5040032;28;20491;-37
2022/12/18 11:23:31;;;;;;;26.90;12.52;;;-4.20;99.90;;;;;;5043149;28;20072;-36
2022/12/18 11:26:03;;;;;;;24.65;11.02;;;-4.20;99.90;;;;;;5050081;28;20072;-39
2022/12/18 11:28:34;;;;;;;26.33;11.45;;;-4.10;99.90;;;;;;5044419;28;20053;-39
2022/12/18 11:31:14;;;;;;;26.35;12.10;;;-4.10;99.90;;;;;;5040118;28;20091;-36
2022/12/18 11:33:46;;;;;;;5.93;4.30;;;-4.00;99.90;;;;;;5046832;28;20037;-39
2022/12/18 11:36:13;;;;;;;21.00;9.02;;;-3.90;99.90;;;;;;5048773;28;20513;-36
2022/12/18 11:38:41;;;;;;;23.63;12.23;;;-3.80;99.90;;;;;;5045484;28;20025;-37
2022/12/18 11:44:29;;;;;;;31.13;13.63;;;-3.90;99.90;;;;;;5020196;28;20474;-34
2022/12/18 11:47:07;;;;;;;26.17;12.10;;;-3.90;99.90;;;;;;5042497;28;20025;-39
2022/12/18 11:49:36;;;;;;;33.60;13.55;;;-4.00;99.90;;;;;;5042209;28;20024;-38
2022/12/18 11:52:09;;;;;;;28.77;12.68;;;-4.00;99.90;;;;;;5046410;28;20024;-39
2022/12/18 11:54:35;;;;;;;28.08;12.65;;;-4.00;99.90;;;;;;5039964;28;20047;-39
2022/12/18 11:57:07;;;;;;;24.92;9.68;;;-4.00;99.90;;;;;;5042321;28;20498;-37
2022/12/18 12:00:10;;;;;;;23.77;11.00;;;-4.00;99.90;;;;;;5045902;28;20036;-39
2022/12/18 12:02:55;;;;;;;25.27;11.50;;;-4.00;99.90;;;;;;5016287;28;20052;-38
2022/12/18 12:05:48;;;;;;;20.95;12.82;;;-4.00;99.90;;;;;;5057789;28;20033;-39
2022/12/18 12:08:46;;;;;;;40.55;17.40;;;-3.90;99.90;;;;;;5044176;28;20524;-39
2022/12/18 12:11:44;;;;;;;27.08;12.57;;;-3.90;99.90;;;;;;4999133;28;20379;-40
2022/12/18 12:14:12;;;;;;;20.73;9.95;;;-3.80;99.90;;;;;;5041562;28;20029;-37
2022/12/18 12:16:45;;;;;;;33.78;12.82;;;-3.80;99.90;;;;;;5047465;28;20029;-40
2022/12/18 12:19:20;;;;;;;31.25;13.63;;;-3.80;99.90;;;;;;5045591;28;20056;-40
2022/12/18 12:22:02;;;;;;;20.67;11.15;;;-3.80;99.90;;;;;;5041199;28;20079;-40
2022/12/18 12:24:39;;;;;;;28.33;11.25;;;-3.80;99.90;;;;;;5041293;28;20371;-39
2022/12/18 12:27:34;;;;;;;26.77;12.48;;;-3.80;99.90;;;;;;5039852;28;20063;-39
2022/12/18 12:30:05;;;;;;;30.15;13.88;;;-3.90;99.90;;;;;;5031017;28;20049;-40
2022/12/18 12:33:00;;;;;;;22.88;11.23;;;-3.80;99.90;;;;;;5039444;28;20033;-39
2022/12/18 12:35:40;;;;;;;20.27;10.60;;;-3.80;99.90;;;;;;5045076;28;20032;-40
2022/12/18 12:38:26;;;;;;;31.27;14.52;;;-3.80;99.90;;;;;;5043325;28;20112;-38
2022/12/18 12:40:54;;;;;;;21.52;11.18;;;-3.80;99.90;;;;;;5042639;28;20044;-38
2022/12/18 12:43:31;;;;;;;20.38;10.82;;;-3.80;99.90;;;;;;5048025;28;20076;-38
2022/12/18 12:46:08;;;;;;;30.65;13.70;;;-3.80;99.90;;;;;;5046274;28;20037;-37
2022/12/18 12:48:53;;;;;;;31.10;12.93;;;-3.80;99.90;;;;;;5043180;28;20052;-39
2022/12/18 12:51:31;;;;;;;30.98;13.70;;;-3.80;99.90;;;;;;5045976;28;20244;-40
2022/12/18 12:53:59;;;;;;;22.02;11.20;;;-3.90;99.90;;;;;;5041253;28;20482;-39